sensor_id;sensor_type;location;lat;lon;timestamp;P1;durP1;ratioP1;P2;durP2;ratioP2
62006;SDS011;47963;53.008;6.754;2022-10-30T00:00:23;53.42;;;27.98;;
62006;SDS011;47963;53.008;6.754;2022-10-30T00:02:49;60.58;;;27.13;;
62006;SDS011;47963;53.008;6.754;2022-10-30T00:05:14;58.88;;;27.65;;
62006;SDS011;47963;53.008;6.754;2022-10-30T00:07:41;54.55;;;26.75;;
62006;SDS011;47963;53.008;6.754;2022-10-30T00:10:06;58.78;;;27.77;;
62006;SDS011;47963;53.008;6.754;2022-10-30T00:12:33;60.20;;;28.52;;
62006;SDS011;47963;53.008;6.754;2022-10-30T00:14:59;57.70;;;27.33;;
62006;SDS011;47963;53.008;6.754;2022-10-30T00:17:24;54.47;;;27.80;;
62006;SDS011;47963;53.008;6.754;2022-10-30T00:19:50;57.58;;;28.98;;
62006;SDS011;47963;53.008;6.754;2022-10-30T00:22:16;55.85;;;28.20;;
62006;SDS011;47963;53.008;6.754;2022-10-30T00:24:41;55.95;;;27.95;;
62006;SDS011;47963;53.008;6.754;2022-10-30T00:27:07;58.25;;;28.67;;
62006;SDS011;47963;53.008;6.754;2022-10-30T00:29:32;56.58;;;27.73;;
62006;SDS011;47963;53.008;6.754;2022-10-30T00:31:59;64.43;;;28.98;;
62006;SDS011;47963;53.008;6.754;2022-10-30T00:34:25;52.40;;;27.85;;
62006;SDS011;47963;53.008;6.754;2022-10-30T00:36:50;59.78;;;28.48;;
62006;SDS011;47963;53.008;6.754;2022-10-30T00:39:16;59.97;;;27.38;;
62006;SDS011;47963;53.008;6.754;2022-10-30T00:41:42;63.10;;;27.15;;
62006;SDS011;47963;53.008;6.754;2022-10-30T00:46:58;65.03;;;27.75;;
62006;SDS011;47963;53.008;6.754;2022-10-30T00:49:28;59.00;;;28.20;;
62006;SDS011;47963;53.008;6.754;2022-10-30T00:51:57;61.30;;;27.73;;
62006;SDS011;47963;53.008;6.754;2022-10-30T00:54:24;58.70;;;26.80;;
62006;SDS011;47963;53.008;6.754;2022-10-30T00:56:50;50.78;;;26.27;;
62006;SDS011;47963;53.008;6.754;2022-10-30T00:59:19;62.03;;;27.25;;
62006;SDS011;47963;53.008;6.754;2022-10-30T01:01:50;59.67;;;26.60;;
62006;SDS011;47963;53.008;6.754;2022-10-30T01:04:17;58.70;;;26.63;;
62006;SDS011;47963;53.008;6.754;2022-10-30T01:06:44;52.03;;;26.23;;
62006;SDS011;47963;53.008;6.754;2022-10-30T01:09:12;56.35;;;26.85;;
62006;SDS011;47963;53.008;6.754;2022-10-30T01:11:39;57.08;;;26.13;;
62006;SDS011;47963;53.008;6.754;2022-10-30T01:14:05;55.85;;;26.08;;
62006;SDS011;47963;53.008;6.754;2022-10-30T01:16:40;58.17;;;25.90;;
62006;SDS011;47963;53.008;6.754;2022-10-30T01:19:16;49.45;;;26.02;;
62006;SDS011;47963;53.008;6.754;2022-10-30T01:25:01;57.67;;;27.25;;
62006;SDS011;47963;53.008;6.754;2022-10-30T01:27:41;51.28;;;24.52;;
62006;SDS011;47963;53.008;6.754;2022-10-30T01:33:08;56.25;;;26.70;;
62006;SDS011;47963;53.008;6.754;2022-10-30T01:35:47;59.20;;;26.75;;
62006;SDS011;47963;53.008;6.754;2022-10-30T01:38:31;53.33;;;27.60;;
62006;SDS011;47963;53.008;6.754;2022-10-30T01:41:10;59.13;;;26.50;;
62006;SDS011;47963;53.008;6.754;2022-10-30T01:43:36;54.25;;;26.02;;
62006;SDS011;47963;53.008;6.754;2022-10-30T01:51:45;57.50;;;27.60;;
62006;SDS011;47963;53.008;6.754;2022-10-30T02:00:26;60.03;;;28.25;;
62006;SDS011;47963;53.008;6.754;2022-10-30T02:02:52;55.45;;;27.48;;
62006;SDS011;47963;53.008;6.754;2022-10-30T02:05:24;60.83;;;27.98;;
62006;SDS011;47963;53.008;6.754;2022-10-30T02:07:57;54.88;;;27.05;;
62006;SDS011;47963;53.008;6.754;2022-10-30T02:10:23;52.95;;;26.88;;
62006;SDS011;47963;53.008;6.754;2022-10-30T02:12:48;61.00;;;28.02;;
62006;SDS011;47963;53.008;6.754;2022-10-30T02:15:14;53.13;;;27.70;;
62006;SDS011;47963;53.008;6.754;2022-10-30T02:17:40;53.60;;;26.27;;
62006;SDS011;47963;53.008;6.754;2022-10-30T02:20:06;62.63;;;27.55;;
62006;SDS011;47963;53.008;6.754;2022-10-30T02:22:38;61.00;;;27.90;;
62006;SDS011;47963;53.008;6.754;2022-10-30T02:25:04;56.17;;;27.38;;
62006;SDS011;47963;53.008;6.754;2022-10-30T02:27:30;60.65;;;27.55;;
62006;SDS011;47963;53.008;6.754;2022-10-30T02:29:55;57.85;;;26.52;;
62006;SDS011;47963;53.008;6.754;2022-10-30T02:32:21;58.47;;;27.50;;
62006;SDS011;47963;53.008;6.754;2022-10-30T02:34:47;54.67;;;26.15;;
62006;SDS011;47963;53.008;6.754;2022-10-30T02:37:12;55.55;;;27.85;;
62006;SDS011;47963;53.008;6.754;2022-10-30T02:39:38;52.75;;;26.85;;
62006;SDS011;47963;53.008;6.754;2022-10-30T02:42:03;52.83;;;27.92;;
62006;SDS011;47963;53.008;6.754;2022-10-30T02:44:29;55.88;;;27.23;;
62006;SDS011;47963;53.008;6.754;2022-10-30T02:46:55;58.60;;;27.88;;
62006;SDS011;47963;53.008;6.754;2022-10-30T02:49:21;55.95;;;27.00;;
62006;SDS011;47963;53.008;6.754;2022-10-30T02:51:46;54.22;;;26.05;;
62006;SDS011;47963;53.008;6.754;2022-10-30T02:54:12;53.63;;;27.02;;
62006;SDS011;47963;53.008;6.754;2022-10-30T02:56:40;61.50;;;26.92;;
62006;SDS011;47963;53.008;6.754;2022-10-30T02:59:06;54.20;;;27.02;;
62006;SDS011;47963;53.008;6.754;2022-10-30T03:01:32;57.55;;;27.60;;
62006;SDS011;47963;53.008;6.754;2022-10-30T03:03:57;54.30;;;26.73;;
62006;SDS011;47963;53.008;6.754;2022-10-30T03:06:23;60.50;;;28.10;;
62006;SDS011;47963;53.008;6.754;2022-10-30T03:08:49;56.35;;;27.05;;
62006;SDS011;47963;53.008;6.754;2022-10-30T03:11:15;51.47;;;27.75;;
62006;SDS011;47963;53.008;6.754;2022-10-30T03:13:42;54.38;;;26.83;;
62006;SDS011;47963;53.008;6.754;2022-10-30T03:16:10;55.38;;;26.90;;
62006;SDS011;47963;53.008;6.754;2022-10-30T03:18:41;52.67;;;26.52;;
62006;SDS011;47963;53.008;6.754;2022-10-30T03:21:08;62.05;;;27.90;;
62006;SDS011;47963;53.008;6.754;2022-10-30T03:23:37;53.90;;;26.67;;
62006;SDS011;47963;53.008;6.754;2022-10-30T03:26:03;56.45;;;27.17;;
62006;SDS011;47963;53.008;6.754;2022-10-30T03:28:29;52.47;;;27.50;;
62006;SDS011;47963;53.008;6.754;2022-10-30T03:30:59;51.67;;;28.10;;
62006;SDS011;47963;53.008;6.754;2022-10-30T03:33:26;52.72;;;26.60;;
62006;SDS011;47963;53.008;6.754;2022-10-30T03:35:52;59.50;;;28.15;;
62006;SDS011;47963;53.008;6.754;2022-10-30T03:38:17;57.75;;;27.83;;
62006;SDS011;47963;53.008;6.754;2022-10-30T03:40:43;53.33;;;27.85;;
62006;SDS011;47963;53.008;6.754;2022-10-30T03:43:09;60.78;;;27.23;;
62006;SDS011;47963;53.008;6.754;2022-10-30T03:45:35;53.95;;;27.35;;
62006;SDS011;47963;53.008;6.754;2022-10-30T03:48:01;55.47;;;25.85;;
62006;SDS011;47963;53.008;6.754;2022-10-30T03:50:27;61.60;;;27.52;;
62006;SDS011;47963;53.008;6.754;2022-10-30T03:52:56;59.63;;;27.55;;
62006;SDS011;47963;53.008;6.754;2022-10-30T03:55:22;55.95;;;27.73;;
62006;SDS011;47963;53.008;6.754;2022-10-30T03:57:49;50.78;;;27.38;;
62006;SDS011;47963;53.008;6.754;2022-10-30T04:00:16;58.80;;;28.17;;
62006;SDS011;47963;53.008;6.754;2022-10-30T04:02:46;57.25;;;26.98;;
62006;SDS011;47963;53.008;6.754;2022-10-30T04:05:17;56.78;;;27.73;;
62006;SDS011;47963;53.008;6.754;2022-10-30T04:07:44;61.75;;;28.23;;
62006;SDS011;47963;53.008;6.754;2022-10-30T04:10:12;53.67;;;28.98;;
62006;SDS011;47963;53.008;6.754;2022-10-30T04:12:38;58.08;;;27.40;;
62006;SDS011;47963;53.008;6.754;2022-10-30T04:15:05;59.63;;;28.42;;
62006;SDS011;47963;53.008;6.754;2022-10-30T04:17:33;58.65;;;28.48;;
62006;SDS011;47963;53.008;6.754;2022-10-30T04:19:59;65.10;;;27.67;;
62006;SDS011;47963;53.008;6.754;2022-10-30T04:22:24;56.10;;;28.30;;
62006;SDS011;47963;53.008;6.754;2022-10-30T04:24:50;63.13;;;29.45;;
62006;SDS011;47963;53.008;6.754;2022-10-30T04:27:17;59.13;;;29.25;;
62006;SDS011;47963;53.008;6.754;2022-10-30T04:29:44;52.28;;;29.63;;
62006;SDS011;47963;53.008;6.754;2022-10-30T04:32:10;57.38;;;28.08;;
62006;SDS011;47963;53.008;6.754;2022-10-30T04:34:37;63.10;;;29.40;;
62006;SDS011;47963;53.008;6.754;2022-10-30T04:37:04;69.45;;;29.45;;
62006;SDS011;47963;53.008;6.754;2022-10-30T04:39:32;56.03;;;28.85;;
62006;SDS011;47963;53.008;6.754;2022-10-30T04:41:58;58.13;;;29.75;;
62006;SDS011;47963;53.008;6.754;2022-10-30T04:44:24;54.22;;;29.10;;
62006;SDS011;47963;53.008;6.754;2022-10-30T04:46:49;63.53;;;29.80;;
62006;SDS011;47963;53.008;6.754;2022-10-30T04:49:16;62.72;;;29.73;;
62006;SDS011;47963;53.008;6.754;2022-10-30T04:51:42;58.58;;;28.65;;
62006;SDS011;47963;53.008;6.754;2022-10-30T04:54:07;57.47;;;29.05;;
62006;SDS011;47963;53.008;6.754;2022-10-30T04:56:33;56.78;;;29.90;;
62006;SDS011;47963;53.008;6.754;2022-10-30T04:58:59;69.18;;;28.90;;
62006;SDS011;47963;53.008;6.754;2022-10-30T05:01:25;64.70;;;29.52;;
62006;SDS011;47963;53.008;6.754;2022-10-30T05:03:51;65.13;;;30.02;;
62006;SDS011;47963;53.008;6.754;2022-10-30T05:09:00;60.63;;;30.08;;
62006;SDS011;47963;53.008;6.754;2022-10-30T05:11:26;59.97;;;29.35;;
62006;SDS011;47963;53.008;6.754;2022-10-30T05:13:51;63.67;;;29.92;;
62006;SDS011;47963;53.008;6.754;2022-10-30T05:16:17;61.28;;;29.63;;
62006;SDS011;47963;53.008;6.754;2022-10-30T05:18:43;60.15;;;29.45;;
62006;SDS011;47963;53.008;6.754;2022-10-30T05:21:08;61.63;;;29.95;;
62006;SDS011;47963;53.008;6.754;2022-10-30T05:23:34;53.70;;;28.42;;
62006;SDS011;47963;53.008;6.754;2022-10-30T05:26:01;56.97;;;30.45;;
62006;SDS011;47963;53.008;6.754;2022-10-30T05:28:27;59.33;;;28.80;;
62006;SDS011;47963;53.008;6.754;2022-10-30T05:30:53;57.55;;;27.20;;
62006;SDS011;47963;53.008;6.754;2022-10-30T05:33:19;55.17;;;29.33;;
62006;SDS011;47963;53.008;6.754;2022-10-30T05:35:45;62.90;;;28.70;;
62006;SDS011;47963;53.008;6.754;2022-10-30T05:38:10;56.03;;;31.15;;
62006;SDS011;47963;53.008;6.754;2022-10-30T05:40:36;56.10;;;29.67;;
62006;SDS011;47963;53.008;6.754;2022-10-30T05:43:03;61.83;;;30.33;;
62006;SDS011;47963;53.008;6.754;2022-10-30T05:45:29;62.08;;;30.00;;
62006;SDS011;47963;53.008;6.754;2022-10-30T05:47:59;57.72;;;29.67;;
62006;SDS011;47963;53.008;6.754;2022-10-30T05:50:26;71.35;;;32.10;;
62006;SDS011;47963;53.008;6.754;2022-10-30T05:52:56;66.03;;;31.58;;
62006;SDS011;47963;53.008;6.754;2022-10-30T05:55:29;57.88;;;30.83;;
62006;SDS011;47963;53.008;6.754;2022-10-30T05:57:55;67.68;;;30.33;;
62006;SDS011;47963;53.008;6.754;2022-10-30T06:00:22;64.97;;;32.15;;
62006;SDS011;47963;53.008;6.754;2022-10-30T06:02:48;62.72;;;30.85;;
62006;SDS011;47963;53.008;6.754;2022-10-30T06:05:14;67.05;;;31.17;;
62006;SDS011;47963;53.008;6.754;2022-10-30T06:07:40;65.25;;;31.63;;
62006;SDS011;47963;53.008;6.754;2022-10-30T06:10:05;67.15;;;31.17;;
62006;SDS011;47963;53.008;6.754;2022-10-30T06:12:31;66.72;;;31.20;;
62006;SDS011;47963;53.008;6.754;2022-10-30T06:14:57;58.75;;;31.30;;
62006;SDS011;47963;53.008;6.754;2022-10-30T06:17:22;69.20;;;31.10;;
62006;SDS011;47963;53.008;6.754;2022-10-30T06:19:52;63.70;;;32.80;;
62006;SDS011;47963;53.008;6.754;2022-10-30T06:22:17;69.70;;;34.03;;
62006;SDS011;47963;53.008;6.754;2022-10-30T06:24:43;66.18;;;33.53;;
62006;SDS011;47963;53.008;6.754;2022-10-30T06:27:09;66.45;;;32.95;;
62006;SDS011;47963;53.008;6.754;2022-10-30T06:29:34;70.43;;;33.25;;
62006;SDS011;47963;53.008;6.754;2022-10-30T06:32:00;69.20;;;34.08;;
62006;SDS011;47963;53.008;6.754;2022-10-30T06:34:25;73.70;;;33.60;;
62006;SDS011;47963;53.008;6.754;2022-10-30T06:36:51;65.22;;;33.22;;
62006;SDS011;47963;53.008;6.754;2022-10-30T06:39:17;75.90;;;33.85;;
62006;SDS011;47963;53.008;6.754;2022-10-30T06:41:42;66.88;;;33.88;;
62006;SDS011;47963;53.008;6.754;2022-10-30T06:44:08;64.60;;;32.72;;
62006;SDS011;47963;53.008;6.754;2022-10-30T06:46:33;70.30;;;33.42;;
62006;SDS011;47963;53.008;6.754;2022-10-30T06:48:59;64.88;;;32.65;;
62006;SDS011;47963;53.008;6.754;2022-10-30T06:51:25;69.25;;;33.72;;
62006;SDS011;47963;53.008;6.754;2022-10-30T06:53:50;65.45;;;32.38;;
62006;SDS011;47963;53.008;6.754;2022-10-30T06:56:16;73.53;;;33.88;;
62006;SDS011;47963;53.008;6.754;2022-10-30T06:58:42;60.30;;;32.25;;
62006;SDS011;47963;53.008;6.754;2022-10-30T07:01:07;68.35;;;31.58;;
62006;SDS011;47963;53.008;6.754;2022-10-30T07:03:33;69.25;;;33.55;;
62006;SDS011;47963;53.008;6.754;2022-10-30T07:05:59;73.65;;;33.80;;
62006;SDS011;47963;53.008;6.754;2022-10-30T07:08:25;66.43;;;33.00;;
62006;SDS011;47963;53.008;6.754;2022-10-30T07:10:51;64.88;;;32.20;;
62006;SDS011;47963;53.008;6.754;2022-10-30T07:13:17;66.05;;;35.13;;
62006;SDS011;47963;53.008;6.754;2022-10-30T07:15:42;65.57;;;35.33;;
62006;SDS011;47963;53.008;6.754;2022-10-30T07:18:09;74.13;;;35.08;;
62006;SDS011;47963;53.008;6.754;2022-10-30T07:20:35;72.18;;;34.58;;
62006;SDS011;47963;53.008;6.754;2022-10-30T07:23:01;64.53;;;32.53;;
62006;SDS011;47963;53.008;6.754;2022-10-30T07:25:27;74.03;;;34.67;;
62006;SDS011;47963;53.008;6.754;2022-10-30T07:27:54;69.43;;;33.28;;
62006;SDS011;47963;53.008;6.754;2022-10-30T07:30:22;71.70;;;35.90;;
62006;SDS011;47963;53.008;6.754;2022-10-30T07:32:58;71.03;;;35.78;;
62006;SDS011;47963;53.008;6.754;2022-10-30T07:35:26;69.70;;;36.10;;
62006;SDS011;47963;53.008;6.754;2022-10-30T07:37:52;64.78;;;35.33;;
62006;SDS011;47963;53.008;6.754;2022-10-30T07:40:18;74.55;;;35.45;;
62006;SDS011;47963;53.008;6.754;2022-10-30T07:42:44;70.93;;;35.53;;
62006;SDS011;47963;53.008;6.754;2022-10-30T07:45:10;71.20;;;35.63;;
62006;SDS011;47963;53.008;6.754;2022-10-30T07:47:42;66.03;;;35.50;;
62006;SDS011;47963;53.008;6.754;2022-10-30T07:50:08;74.60;;;35.47;;
62006;SDS011;47963;53.008;6.754;2022-10-30T07:52:34;66.10;;;35.97;;
62006;SDS011;47963;53.008;6.754;2022-10-30T07:55:00;79.57;;;37.83;;
62006;SDS011;47963;53.008;6.754;2022-10-30T07:57:26;74.97;;;37.20;;
62006;SDS011;47963;53.008;6.754;2022-10-30T07:59:51;73.07;;;35.88;;
62006;SDS011;47963;53.008;6.754;2022-10-30T08:02:17;73.88;;;36.65;;
62006;SDS011;47963;53.008;6.754;2022-10-30T08:04:43;75.05;;;38.05;;
62006;SDS011;47963;53.008;6.754;2022-10-30T08:07:08;76.45;;;37.15;;
62006;SDS011;47963;53.008;6.754;2022-10-30T08:09:34;77.25;;;37.22;;
62006;SDS011;47963;53.008;6.754;2022-10-30T08:11:59;70.93;;;37.42;;
62006;SDS011;47963;53.008;6.754;2022-10-30T08:14:25;71.43;;;36.50;;
62006;SDS011;47963;53.008;6.754;2022-10-30T08:16:51;79.30;;;37.72;;
62006;SDS011;47963;53.008;6.754;2022-10-30T08:19:16;69.95;;;37.17;;
62006;SDS011;47963;53.008;6.754;2022-10-30T08:21:42;80.45;;;38.40;;
62006;SDS011;47963;53.008;6.754;2022-10-30T08:24:08;77.18;;;37.03;;
62006;SDS011;47963;53.008;6.754;2022-10-30T08:26:33;77.35;;;37.90;;
62006;SDS011;47963;53.008;6.754;2022-10-30T08:28:59;75.25;;;36.70;;
62006;SDS011;47963;53.008;6.754;2022-10-30T08:31:25;69.32;;;36.50;;
62006;SDS011;47963;53.008;6.754;2022-10-30T08:33:51;73.40;;;35.72;;
62006;SDS011;47963;53.008;6.754;2022-10-30T08:36:16;76.80;;;37.67;;
62006;SDS011;47963;53.008;6.754;2022-10-30T08:38:42;70.28;;;36.83;;
62006;SDS011;47963;53.008;6.754;2022-10-30T08:41:08;78.43;;;38.03;;
62006;SDS011;47963;53.008;6.754;2022-10-30T08:43:33;73.28;;;36.92;;
62006;SDS011;47963;53.008;6.754;2022-10-30T08:45:59;76.55;;;36.72;;
62006;SDS011;47963;53.008;6.754;2022-10-30T08:48:25;71.45;;;34.95;;
62006;SDS011;47963;53.008;6.754;2022-10-30T08:50:51;76.22;;;36.47;;
62006;SDS011;47963;53.008;6.754;2022-10-30T08:53:18;73.10;;;35.70;;
62006;SDS011;47963;53.008;6.754;2022-10-30T08:55:44;74.25;;;37.58;;
62006;SDS011;47963;53.008;6.754;2022-10-30T08:58:10;72.53;;;35.47;;
62006;SDS011;47963;53.008;6.754;2022-10-30T09:00:35;75.78;;;36.60;;
62006;SDS011;47963;53.008;6.754;2022-10-30T09:03:02;76.78;;;36.80;;
62006;SDS011;47963;53.008;6.754;2022-10-30T09:05:27;68.10;;;36.28;;
62006;SDS011;47963;53.008;6.754;2022-10-30T09:07:56;76.05;;;36.08;;
62006;SDS011;47963;53.008;6.754;2022-10-30T09:10:23;69.07;;;36.47;;
62006;SDS011;47963;53.008;6.754;2022-10-30T09:12:52;68.38;;;35.67;;
62006;SDS011;47963;53.008;6.754;2022-10-30T09:15:22;71.07;;;36.17;;
62006;SDS011;47963;53.008;6.754;2022-10-30T09:17:58;66.07;;;34.97;;
62006;SDS011;47963;53.008;6.754;2022-10-30T09:20:25;76.00;;;34.83;;
62006;SDS011;47963;53.008;6.754;2022-10-30T09:22:51;68.72;;;33.33;;
62006;SDS011;47963;53.008;6.754;2022-10-30T09:25:17;64.05;;;32.95;;
62006;SDS011;47963;53.008;6.754;2022-10-30T09:27:43;75.18;;;34.95;;
62006;SDS011;47963;53.008;6.754;2022-10-30T09:30:09;68.88;;;33.85;;
62006;SDS011;47963;53.008;6.754;2022-10-30T09:32:36;74.35;;;35.22;;
62006;SDS011;47963;53.008;6.754;2022-10-30T09:35:02;67.85;;;33.80;;
62006;SDS011;47963;53.008;6.754;2022-10-30T09:37:27;69.47;;;32.95;;
62006;SDS011;47963;53.008;6.754;2022-10-30T09:39:54;67.97;;;33.33;;
62006;SDS011;47963;53.008;6.754;2022-10-30T09:42:39;73.88;;;33.65;;
62006;SDS011;47963;53.008;6.754;2022-10-30T09:48:02;66.28;;;32.28;;
62006;SDS011;47963;53.008;6.754;2022-10-30T09:50:45;66.60;;;30.70;;
62006;SDS011;47963;53.008;6.754;2022-10-30T09:56:04;61.17;;;30.15;;
62006;SDS011;47963;53.008;6.754;2022-10-30T10:01:30;68.18;;;29.90;;
62006;SDS011;47963;53.008;6.754;2022-10-30T10:04:20;61.58;;;28.88;;
62006;SDS011;47963;53.008;6.754;2022-10-30T10:10:05;60.45;;;28.52;;
62006;SDS011;47963;53.008;6.754;2022-10-30T10:13:05;58.55;;;26.77;;
62006;SDS011;47963;53.008;6.754;2022-10-30T10:15:53;60.28;;;27.42;;
62006;SDS011;47963;53.008;6.754;2022-10-30T10:18:28;59.58;;;26.42;;
62006;SDS011;47963;53.008;6.754;2022-10-30T10:21:00;57.20;;;26.77;;
62006;SDS011;47963;53.008;6.754;2022-10-30T10:23:40;58.63;;;26.38;;
62006;SDS011;47963;53.008;6.754;2022-10-30T10:26:19;54.75;;;26.15;;
62006;SDS011;47963;53.008;6.754;2022-10-30T10:28:56;61.83;;;26.25;;
62006;SDS011;47963;53.008;6.754;2022-10-30T10:31:29;56.42;;;25.48;;
62006;SDS011;47963;53.008;6.754;2022-10-30T10:50:00;50.28;;;21.42;;
62006;SDS011;47963;53.008;6.754;2022-10-30T10:52:37;43.20;;;20.65;;
62006;SDS011;47963;53.008;6.754;2022-10-30T10:55:15;46.63;;;21.40;;
62006;SDS011;47963;53.008;6.754;2022-10-30T10:57:43;53.67;;;23.45;;
62006;SDS011;47963;53.008;6.754;2022-10-30T11:08:31;42.60;;;19.73;;
62006;SDS011;47963;53.008;6.754;2022-10-30T11:11:00;44.35;;;19.15;;
62006;SDS011;47963;53.008;6.754;2022-10-30T11:13:29;52.60;;;20.00;;
62006;SDS011;47963;53.008;6.754;2022-10-30T11:18:35;53.45;;;19.83;;
62006;SDS011;47963;53.008;6.754;2022-10-30T11:21:12;46.60;;;20.40;;
62006;SDS011;47963;53.008;6.754;2022-10-30T11:23:43;44.95;;;20.63;;
62006;SDS011;47963;53.008;6.754;2022-10-30T11:28:41;42.45;;;19.90;;
62006;SDS011;47963;53.008;6.754;2022-10-30T11:31:30;42.13;;;19.02;;
62006;SDS011;47963;53.008;6.754;2022-10-30T11:36:45;42.03;;;17.92;;
62006;SDS011;47963;53.008;6.754;2022-10-30T11:39:18;40.15;;;16.83;;
62006;SDS011;47963;53.008;6.754;2022-10-30T11:41:47;40.05;;;17.88;;
62006;SDS011;47963;53.008;6.754;2022-10-30T11:44:37;45.03;;;19.33;;
62006;SDS011;47963;53.008;6.754;2022-10-30T11:47:07;38.27;;;19.10;;
62006;SDS011;47963;53.008;6.754;2022-10-30T11:49:43;45.08;;;20.75;;
62006;SDS011;47963;53.008;6.754;2022-10-30T11:52:20;41.53;;;19.50;;
62006;SDS011;47963;53.008;6.754;2022-10-30T11:54:52;47.58;;;21.23;;
62006;SDS011;47963;53.008;6.754;2022-10-30T11:57:29;44.40;;;20.95;;
62006;SDS011;47963;53.008;6.754;2022-10-30T11:59:59;46.55;;;20.95;;
62006;SDS011;47963;53.008;6.754;2022-10-30T12:02:29;46.65;;;21.38;;
62006;SDS011;47963;53.008;6.754;2022-10-30T12:05:15;51.08;;;22.10;;
62006;SDS011;47963;53.008;6.754;2022-10-30T12:07:51;51.42;;;22.13;;
62006;SDS011;47963;53.008;6.754;2022-10-30T12:10:24;47.95;;;24.17;;
62006;SDS011;47963;53.008;6.754;2022-10-30T12:12:51;45.58;;;22.00;;
62006;SDS011;47963;53.008;6.754;2022-10-30T12:15:18;48.30;;;22.23;;
62006;SDS011;47963;53.008;6.754;2022-10-30T12:18:20;47.00;;;21.92;;
62006;SDS011;47963;53.008;6.754;2022-10-30T12:20:51;55.05;;;23.27;;
62006;SDS011;47963;53.008;6.754;2022-10-30T12:23:21;54.53;;;23.92;;
62006;SDS011;47963;53.008;6.754;2022-10-30T12:26:00;51.97;;;24.27;;
62006;SDS011;47963;53.008;6.754;2022-10-30T12:28:33;56.10;;;23.75;;
62006;SDS011;47963;53.008;6.754;2022-10-30T12:31:04;47.15;;;22.63;;
62006;SDS011;47963;53.008;6.754;2022-10-30T12:36:27;52.13;;;23.60;;
62006;SDS011;47963;53.008;6.754;2022-10-30T12:41:42;54.45;;;23.33;;
62006;SDS011;47963;53.008;6.754;2022-10-30T12:44:21;52.15;;;23.90;;
62006;SDS011;47963;53.008;6.754;2022-10-30T12:47:12;51.55;;;22.90;;
62006;SDS011;47963;53.008;6.754;2022-10-30T12:49:52;51.90;;;24.70;;
62006;SDS011;47963;53.008;6.754;2022-10-30T12:52:34;52.67;;;23.50;;
62006;SDS011;47963;53.008;6.754;2022-10-30T12:55:13;54.70;;;23.15;;
62006;SDS011;47963;53.008;6.754;2022-10-30T13:00:26;51.95;;;23.70;;
62006;SDS011;47963;53.008;6.754;2022-10-30T13:03:19;54.03;;;22.75;;
62006;SDS011;47963;53.008;6.754;2022-10-30T13:05:47;47.45;;;22.33;;
62006;SDS011;47963;53.008;6.754;2022-10-30T13:11:10;44.55;;;18.77;;
62006;SDS011;47963;53.008;6.754;2022-10-30T13:13:46;46.42;;;19.27;;
62006;SDS011;47963;53.008;6.754;2022-10-30T13:16:17;39.55;;;18.50;;
62006;SDS011;47963;53.008;6.754;2022-10-30T13:18:54;43.17;;;19.13;;
62006;SDS011;47963;53.008;6.754;2022-10-30T13:21:30;42.50;;;19.63;;
62006;SDS011;47963;53.008;6.754;2022-10-30T13:24:10;43.00;;;20.80;;
62006;SDS011;47963;53.008;6.754;2022-10-30T13:32:27;39.90;;;19.25;;
62006;SDS011;47963;53.008;6.754;2022-10-30T13:56:47;40.55;;;19.52;;
62006;SDS011;47963;53.008;6.754;2022-10-30T13:59:24;48.83;;;19.90;;
62006;SDS011;47963;53.008;6.754;2022-10-30T14:05:00;48.08;;;18.63;;
62006;SDS011;47963;53.008;6.754;2022-10-30T14:08:27;42.28;;;19.55;;
62006;SDS011;47963;53.008;6.754;2022-10-30T14:15:44;49.35;;;19.98;;
62006;SDS011;47963;53.008;6.754;2022-10-30T14:20:37;50.25;;;19.83;;
62006;SDS011;47963;53.008;6.754;2022-10-30T14:25:40;49.28;;;19.77;;
62006;SDS011;47963;53.008;6.754;2022-10-30T14:28:18;48.83;;;19.35;;
62006;SDS011;47963;53.008;6.754;2022-10-30T14:30:45;42.50;;;21.38;;
62006;SDS011;47963;53.008;6.754;2022-10-30T14:36:23;46.22;;;20.20;;
62006;SDS011;47963;53.008;6.754;2022-10-30T14:38:59;44.30;;;20.38;;
62006;SDS011;47963;53.008;6.754;2022-10-30T14:46:57;50.33;;;22.83;;
62006;SDS011;47963;53.008;6.754;2022-10-30T15:11:16;57.60;;;29.67;;
62006;SDS011;47963;53.008;6.754;2022-10-30T15:14:03;63.33;;;29.83;;
62006;SDS011;47963;53.008;6.754;2022-10-30T15:16:35;54.25;;;29.40;;
62006;SDS011;47963;53.008;6.754;2022-10-30T15:19:06;59.13;;;28.70;;
62006;SDS011;47963;53.008;6.754;2022-10-30T15:21:47;59.72;;;29.17;;
62006;SDS011;47963;53.008;6.754;2022-10-30T15:24:16;62.80;;;30.00;;
62006;SDS011;47963;53.008;6.754;2022-10-30T15:26:47;62.17;;;29.90;;
62006;SDS011;47963;53.008;6.754;2022-10-30T15:29:28;60.90;;;30.33;;
62006;SDS011;47963;53.008;6.754;2022-10-30T15:31:58;61.60;;;29.75;;
62006;SDS011;47963;53.008;6.754;2022-10-30T15:34:30;53.95;;;28.00;;
62006;SDS011;47963;53.008;6.754;2022-10-30T15:36:57;52.35;;;27.90;;
62006;SDS011;47963;53.008;6.754;2022-10-30T15:39:22;60.95;;;29.42;;
62006;SDS011;47963;53.008;6.754;2022-10-30T15:41:49;67.13;;;31.27;;
62006;SDS011;47963;53.008;6.754;2022-10-30T15:44:19;57.25;;;29.27;;
62006;SDS011;47963;53.008;6.754;2022-10-30T15:46:58;53.28;;;28.45;;
62006;SDS011;47963;53.008;6.754;2022-10-30T15:49:27;58.17;;;30.02;;
62006;SDS011;47963;53.008;6.754;2022-10-30T15:52:03;58.00;;;30.10;;
62006;SDS011;47963;53.008;6.754;2022-10-30T15:54:40;55.08;;;29.38;;
62006;SDS011;47963;53.008;6.754;2022-10-30T15:57:13;60.70;;;29.48;;
62006;SDS011;47963;53.008;6.754;2022-10-30T16:00:04;65.60;;;33.13;;
62006;SDS011;47963;53.008;6.754;2022-10-30T16:02:45;60.97;;;33.33;;
62006;SDS011;47963;53.008;6.754;2022-10-30T16:05:31;60.58;;;32.92;;
62006;SDS011;47963;53.008;6.754;2022-10-30T16:07:59;65.63;;;32.33;;
62006;SDS011;47963;53.008;6.754;2022-10-30T16:10:27;57.90;;;31.95;;
62006;SDS011;47963;53.008;6.754;2022-10-30T16:12:58;61.30;;;31.65;;
62006;SDS011;47963;53.008;6.754;2022-10-30T16:15:26;58.38;;;31.58;;
62006;SDS011;47963;53.008;6.754;2022-10-30T16:20:40;57.67;;;33.92;;
62006;SDS011;47963;53.008;6.754;2022-10-30T16:23:08;60.15;;;31.90;;
62006;SDS011;47963;53.008;6.754;2022-10-30T16:25:34;55.50;;;29.73;;
62006;SDS011;47963;53.008;6.754;2022-10-30T16:28:02;52.70;;;30.80;;
62006;SDS011;47963;53.008;6.754;2022-10-30T16:30:29;58.10;;;30.50;;
62006;SDS011;47963;53.008;6.754;2022-10-30T16:32:56;62.13;;;31.27;;
62006;SDS011;47963;53.008;6.754;2022-10-30T16:35:23;56.60;;;31.05;;
62006;SDS011;47963;53.008;6.754;2022-10-30T16:37:49;58.42;;;31.45;;
62006;SDS011;47963;53.008;6.754;2022-10-30T16:40:16;65.68;;;33.10;;
62006;SDS011;47963;53.008;6.754;2022-10-30T16:42:58;72.13;;;34.22;;
62006;SDS011;47963;53.008;6.754;2022-10-30T16:47:56;56.72;;;32.33;;
62006;SDS011;47963;53.008;6.754;2022-10-30T16:50:34;57.25;;;33.90;;
62006;SDS011;47963;53.008;6.754;2022-10-30T16:53:05;68.28;;;36.95;;
62006;SDS011;47963;53.008;6.754;2022-10-30T16:55:39;72.90;;;38.67;;
62006;SDS011;47963;53.008;6.754;2022-10-30T16:58:05;73.30;;;39.17;;
62006;SDS011;47963;53.008;6.754;2022-10-30T17:00:31;63.03;;;37.55;;
62006;SDS011;47963;53.008;6.754;2022-10-30T17:02:57;74.60;;;39.05;;
62006;SDS011;47963;53.008;6.754;2022-10-30T17:05:31;70.05;;;41.45;;
62006;SDS011;47963;53.008;6.754;2022-10-30T17:15:52;74.78;;;40.97;;